createdAt,value
2022-10-22T00:01:12.794Z,2.85
2022-10-22T00:03:40.035Z,2.20
2022-10-22T00:06:07.337Z,2.42
2022-10-22T00:08:34.102Z,2.22
2022-10-22T00:11:17.678Z,2.17
2022-10-22T00:13:44.559Z,2.30
2022-10-22T00:16:11.545Z,2.27
2022-10-22T00:18:38.800Z,2.80
2022-10-22T00:21:06.557Z,2.95
2022-10-22T00:23:34.309Z,2.75
2022-10-22T00:26:01.159Z,2.38
2022-10-22T00:28:28.060Z,2.60
2022-10-22T00:30:59.833Z,3.00
2022-10-22T00:33:27.986Z,2.53
2022-10-22T00:35:54.926Z,2.92
2022-10-22T00:38:22.091Z,2.97
2022-10-22T00:40:48.974Z,2.50
2022-10-22T00:43:19.478Z,2.85
2022-10-22T00:45:46.437Z,2.95
2022-10-22T00:48:23.318Z,3.20
2022-10-22T00:50:56.730Z,2.80
2022-10-22T00:53:29.321Z,3.07
2022-10-22T00:55:56.561Z,2.88
2022-10-22T00:58:26.491Z,3.10
2022-10-22T01:00:53.918Z,2.65
2022-10-22T01:03:20.988Z,3.10
2022-10-22T01:05:58.443Z,2.80
2022-10-22T01:08:49.014Z,3.05
2022-10-22T01:11:35.959Z,2.47
2022-10-22T01:14:12.186Z,3.58
2022-10-22T01:17:10.832Z,2.92
2022-10-22T01:19:56.225Z,2.27
2022-10-22T01:22:34.393Z,2.60
2022-10-22T01:25:22.307Z,2.80
2022-10-22T01:28:06.474Z,2.67
2022-10-22T01:30:36.061Z,3.00
2022-10-22T01:33:06.805Z,2.93
2022-10-22T01:35:39.129Z,2.58
2022-10-22T01:38:11.095Z,2.67
2022-10-22T01:40:38.402Z,2.67
2022-10-22T01:43:08.612Z,2.30
2022-10-22T01:45:45.871Z,2.57
2022-10-22T01:48:34.381Z,2.10
2022-10-22T01:51:19.406Z,2.75
2022-10-22T01:54:16.565Z,2.78
2022-10-22T01:57:08.015Z,2.22
2022-10-22T01:59:48.612Z,2.20
2022-10-22T02:02:44.992Z,2.47
2022-10-22T02:05:28.896Z,2.58
2022-10-22T02:08:08.179Z,2.83
2022-10-22T02:10:39.080Z,2.75
2022-10-22T02:13:10.640Z,2.33
2022-10-22T02:15:40.161Z,2.97
2022-10-22T02:18:09.869Z,3.35
2022-10-22T02:20:39.048Z,2.75
2022-10-22T02:23:06.091Z,2.42
2022-10-22T02:25:36.986Z,3.00
2022-10-22T02:28:34.705Z,3.00
2022-10-22T02:31:08.286Z,2.70
2022-10-22T02:33:41.386Z,2.45
2022-10-22T02:36:09.199Z,2.80
2022-10-22T02:38:37.234Z,2.87
2022-10-22T02:41:05.063Z,2.88
2022-10-22T02:43:43.343Z,2.67
2022-10-22T02:46:11.679Z,2.97
2022-10-22T02:48:38.689Z,2.95
2022-10-22T02:51:05.690Z,3.03
2022-10-22T02:53:32.735Z,3.13
2022-10-22T02:56:00.454Z,2.75
2022-10-22T02:58:27.287Z,2.70
2022-10-22T03:00:54.166Z,3.00
2022-10-22T03:03:21.008Z,3.00
2022-10-22T03:05:47.856Z,2.72
2022-10-22T03:08:14.659Z,2.80
2022-10-22T03:10:41.539Z,2.83
2022-10-22T03:13:08.339Z,2.80
2022-10-22T03:15:35.213Z,3.30
2022-10-22T03:18:02.066Z,2.40
2022-10-22T03:20:28.897Z,2.60
2022-10-22T03:22:57.015Z,2.58
2022-10-22T03:25:27.474Z,2.60
2022-10-22T03:27:58.116Z,2.70
2022-10-22T03:30:24.950Z,2.80
2022-10-22T03:32:51.709Z,3.30
2022-10-22T03:35:18.431Z,3.30
2022-10-22T03:37:45.313Z,3.17
2022-10-22T03:40:13.070Z,2.30
2022-10-22T03:42:41.508Z,2.70
2022-10-22T03:45:09.064Z,2.70
2022-10-22T03:47:37.588Z,3.28
2022-10-22T03:50:06.129Z,2.92
2022-10-22T03:52:38.532Z,2.57
2022-10-22T03:55:06.705Z,2.60
2022-10-22T03:57:33.559Z,2.90
2022-10-22T04:00:00.307Z,2.35
2022-10-22T04:02:27.067Z,3.40
2022-10-22T04:04:53.820Z,2.87
2022-10-22T04:07:20.582Z,2.90
2022-10-22T04:09:47.363Z,3.08
2022-10-22T04:12:14.173Z,2.67
2022-10-22T04:14:40.995Z,3.05
2022-10-22T04:17:07.732Z,2.67
2022-10-22T04:19:34.598Z,2.60
2022-10-22T04:22:01.688Z,3.20
2022-10-22T04:24:31.085Z,2.35
2022-10-22T04:26:58.660Z,3.13
2022-10-22T04:29:26.033Z,3.50
2022-10-22T04:31:52.994Z,3.20
2022-10-22T04:34:19.838Z,3.22
2022-10-22T04:36:46.675Z,3.10
2022-10-22T04:39:13.458Z,3.05
2022-10-22T04:41:40.331Z,2.83
2022-10-22T04:44:11.051Z,2.97
2022-10-22T04:46:42.938Z,3.17
2022-10-22T04:49:09.794Z,2.83
2022-10-22T04:51:36.637Z,2.75
2022-10-22T04:54:03.488Z,2.97
2022-10-22T04:56:31.824Z,3.35
2022-10-22T04:59:01.801Z,2.53
2022-10-22T05:01:37.078Z,2.70
2022-10-22T05:04:09.305Z,2.80
2022-10-22T05:06:36.888Z,2.77
2022-10-22T05:09:11.031Z,3.05
2022-10-22T05:11:41.813Z,3.20
2022-10-22T05:14:10.283Z,3.13
2022-10-22T05:16:38.431Z,2.92
2022-10-22T05:19:06.695Z,2.70
2022-10-22T05:21:34.368Z,2.58
2022-10-22T05:24:01.241Z,2.80
2022-10-22T05:26:29.438Z,2.88
2022-10-22T05:28:56.986Z,3.03
2022-10-22T05:31:23.895Z,2.63
2022-10-22T05:33:50.776Z,2.45
2022-10-22T05:36:20.264Z,2.92
2022-10-22T05:38:47.470Z,3.40
2022-10-22T05:41:18.152Z,2.90
2022-10-22T05:43:45.262Z,3.00
2022-10-22T05:46:18.679Z,2.83
2022-10-22T05:49:02.685Z,3.17
2022-10-22T05:51:31.946Z,3.20
2022-10-22T05:54:05.329Z,3.25
2022-10-22T05:56:32.626Z,3.20
2022-10-22T05:58:59.751Z,2.65
2022-10-22T06:01:30.284Z,2.63
2022-10-22T06:04:00.211Z,2.40
2022-10-22T06:06:51.207Z,2.58
2022-10-22T06:09:27.948Z,2.77
2022-10-22T06:11:56.047Z,2.40
2022-10-22T06:14:23.694Z,2.83
2022-10-22T06:16:51.413Z,2.50
2022-10-22T06:19:20.656Z,2.83
2022-10-22T06:21:48.198Z,2.43
2022-10-22T06:24:16.285Z,2.58
2022-10-22T06:26:43.130Z,2.40
2022-10-22T06:29:10.452Z,2.30
2022-10-22T06:31:37.403Z,2.70
2022-10-22T06:34:10.467Z,1.97
2022-10-22T06:36:37.364Z,2.55
2022-10-22T06:39:05.055Z,2.75
2022-10-22T06:41:31.964Z,2.20
2022-10-22T06:43:58.977Z,2.38
2022-10-22T06:46:26.291Z,2.13
2022-10-22T06:48:56.727Z,2.47
2022-10-22T06:51:24.287Z,2.13
2022-10-22T06:53:51.339Z,1.90
2022-10-22T06:56:20.901Z,2.40
2022-10-22T06:58:52.469Z,2.57
2022-10-22T07:01:21.753Z,2.13
2022-10-22T07:03:51.470Z,2.35
2022-10-22T07:06:19.598Z,2.38
2022-10-22T07:08:46.959Z,2.03
2022-10-22T07:11:16.490Z,2.47
2022-10-22T07:13:44.015Z,2.10
2022-10-22T07:16:11.351Z,2.08
2022-10-22T07:18:39.801Z,2.50
2022-10-22T07:21:08.026Z,2.20
2022-10-22T07:23:35.153Z,2.57
2022-10-22T07:26:02.990Z,1.58
2022-10-22T07:28:30.895Z,2.10
2022-10-22T07:30:58.114Z,1.77
2022-10-22T07:33:25.016Z,2.25
2022-10-22T07:35:51.916Z,2.13
2022-10-22T07:38:18.776Z,1.73
2022-10-22T07:40:45.626Z,2.10
2022-10-22T07:43:12.511Z,1.60
2022-10-22T07:45:39.341Z,1.80
2022-10-22T07:48:06.583Z,2.60
2022-10-22T07:50:33.972Z,1.60
2022-10-22T07:53:00.939Z,1.63
2022-10-22T07:55:27.814Z,1.92
2022-10-22T07:57:54.722Z,1.90
2022-10-22T08:00:24.549Z,2.03
2022-10-22T08:02:52.732Z,2.00
2022-10-22T08:05:19.763Z,1.42
2022-10-22T08:07:46.664Z,1.80
2022-10-22T08:10:13.717Z,1.10
2022-10-22T08:12:41.658Z,1.57
2022-10-22T08:15:10.000Z,1.50
2022-10-22T08:17:37.118Z,1.45
2022-10-22T08:20:04.694Z,1.30
2022-10-22T08:22:31.547Z,1.80
2022-10-22T08:24:59.289Z,1.00
2022-10-22T08:27:26.859Z,1.40
2022-10-22T08:29:53.701Z,1.20
2022-10-22T08:32:20.572Z,1.58
2022-10-22T08:34:47.507Z,1.42
2022-10-22T08:37:14.591Z,0.80
2022-10-22T08:39:41.697Z,0.90
2022-10-22T08:42:40.100Z,1.20
2022-10-22T08:45:12.403Z,1.38
2022-10-22T08:48:16.510Z,0.98
2022-10-22T08:50:49.959Z,0.97
2022-10-22T08:53:22.544Z,1.10
2022-10-22T08:55:53.589Z,1.13
2022-10-22T08:58:33.536Z,1.20
2022-10-22T09:01:10.058Z,1.20
2022-10-22T09:03:41.722Z,1.37
2022-10-22T09:06:16.377Z,1.10
2022-10-22T09:08:45.860Z,1.00
2022-10-22T09:11:12.732Z,0.95
2022-10-22T09:13:45.170Z,1.27
2022-10-22T09:16:15.022Z,0.93
2022-10-22T09:19:05.219Z,1.10
2022-10-22T09:22:04.573Z,1.15
2022-10-22T09:24:39.245Z,1.05
2022-10-22T09:27:32.574Z,1.77
2022-10-22T09:30:01.945Z,1.53
2022-10-22T09:32:29.322Z,1.42
2022-10-22T09:34:58.237Z,0.82
2022-10-22T09:37:30.293Z,1.23
2022-10-22T09:39:59.178Z,1.13
2022-10-22T09:42:26.026Z,1.00
2022-10-22T09:44:59.042Z,1.75
2022-10-22T09:48:01.884Z,1.00
2022-10-22T09:50:29.322Z,0.70
2022-10-22T09:53:13.120Z,1.00
2022-10-22T09:55:42.248Z,0.80
2022-10-22T09:58:12.416Z,1.02
2022-10-22T10:00:41.107Z,1.17
2022-10-22T10:03:18.375Z,1.25
2022-10-22T10:05:49.579Z,1.30
2022-10-22T10:08:17.883Z,1.00
2022-10-22T10:11:10.823Z,0.80
2022-10-22T10:14:01.258Z,1.00
2022-10-22T10:16:43.589Z,1.20
2022-10-22T10:19:22.037Z,1.20
2022-10-22T10:22:05.728Z,1.77
2022-10-22T10:24:38.549Z,1.40
2022-10-22T10:27:26.080Z,1.38
2022-10-22T10:30:05.764Z,0.90
2022-10-22T10:32:32.619Z,0.88
2022-10-22T10:35:17.470Z,0.80
2022-10-22T10:37:54.240Z,0.57
2022-10-22T10:40:48.789Z,1.05
2022-10-22T10:43:18.673Z,0.90
2022-10-22T10:45:57.594Z,1.10
2022-10-22T10:48:46.087Z,0.87
2022-10-22T10:51:37.149Z,0.77
2022-10-22T10:54:12.517Z,0.95
2022-10-22T10:56:52.209Z,0.50
2022-10-22T10:59:19.083Z,1.20
2022-10-22T11:02:10.460Z,0.63
2022-10-22T11:05:04.295Z,0.68
2022-10-22T11:07:40.853Z,0.68
2022-10-22T11:10:12.850Z,0.85
2022-10-22T11:12:46.561Z,0.57
2022-10-22T11:15:35.161Z,0.50
2022-10-22T11:18:14.567Z,0.80
2022-10-22T11:20:50.981Z,0.60
2022-10-22T11:23:25.938Z,0.70
2022-10-22T11:25:53.105Z,0.70
2022-10-22T11:28:35.620Z,0.60
2022-10-22T11:31:09.013Z,0.80
2022-10-22T11:33:54.562Z,0.60
2022-10-22T11:38:56.783Z,0.70
2022-10-22T11:41:30.857Z,0.60
2022-10-22T11:44:05.471Z,0.63
2022-10-22T11:46:53.702Z,0.60
2022-10-22T11:49:42.424Z,0.57
2022-10-22T11:52:28.396Z,0.80
2022-10-22T11:54:58.008Z,1.17
2022-10-22T11:57:39.590Z,0.77
2022-10-22T12:00:31.577Z,0.65
2022-10-22T12:03:41.155Z,0.50
2022-10-22T12:06:15.800Z,0.90
2022-10-22T12:08:47.085Z,0.70
2022-10-22T12:11:34.318Z,0.80
2022-10-22T12:14:20.068Z,1.20
2022-10-22T12:16:57.256Z,1.00
2022-10-22T12:19:29.427Z,0.60
2022-10-22T12:22:02.253Z,0.80
2022-10-22T12:24:37.228Z,0.70
2022-10-22T12:27:04.339Z,0.82
2022-10-22T12:29:32.957Z,0.50
2022-10-22T12:32:04.884Z,0.60
2022-10-22T12:34:31.846Z,0.57
2022-10-22T12:36:58.839Z,1.05
2022-10-22T12:39:27.504Z,0.80
2022-10-22T12:41:55.590Z,0.70
2022-10-22T12:44:22.447Z,0.77
2022-10-22T12:46:53.184Z,0.80
2022-10-22T12:49:30.308Z,0.90
2022-10-22T12:52:03.297Z,1.08
2022-10-22T12:54:32.254Z,0.82
2022-10-22T12:57:00.594Z,0.65
2022-10-22T12:59:33.648Z,0.60
2022-10-22T13:02:00.949Z,0.80
2022-10-22T13:04:36.653Z,1.25
2022-10-22T13:07:12.478Z,0.77
2022-10-22T13:09:48.521Z,1.00
2022-10-22T13:12:18.852Z,0.73
2022-10-22T13:14:47.216Z,1.17
2022-10-22T13:17:38.155Z,1.00
2022-10-22T13:20:19.540Z,0.90
2022-10-22T13:23:16.711Z,1.00
2022-10-22T13:25:43.636Z,1.00
2022-10-22T13:28:10.525Z,0.90
2022-10-22T13:30:39.493Z,0.90
2022-10-22T13:33:28.327Z,1.02
2022-10-22T13:35:57.124Z,1.30
2022-10-22T13:38:26.722Z,1.03
2022-10-22T13:40:54.104Z,0.95
2022-10-22T13:43:21.265Z,1.10
2022-10-22T13:45:52.171Z,1.10
2022-10-22T13:48:22.306Z,1.30
2022-10-22T13:50:50.310Z,1.40
2022-10-22T13:53:20.968Z,1.08
2022-10-22T13:55:48.143Z,1.30
2022-10-22T13:58:20.355Z,1.20
2022-10-22T14:00:51.584Z,0.82
2022-10-22T14:03:21.983Z,0.73
2022-10-22T14:05:49.427Z,1.20
2022-10-22T14:08:20.295Z,1.63
2022-10-22T14:10:47.670Z,1.05
2022-10-22T14:13:17.370Z,1.10
2022-10-22T14:15:47.019Z,1.00
2022-10-22T14:18:24.277Z,1.52
2022-10-22T14:20:54.063Z,1.15
2022-10-22T14:23:23.401Z,1.23
2022-10-22T14:25:54.023Z,1.05
2022-10-22T14:28:20.947Z,1.10
2022-10-22T14:30:48.425Z,1.30
2022-10-22T14:33:31.404Z,1.05
2022-10-22T14:36:00.445Z,0.95
2022-10-22T14:38:28.338Z,1.10
2022-10-22T14:40:55.840Z,0.60
2022-10-22T14:43:25.510Z,1.45
2022-10-22T14:45:52.626Z,1.77
2022-10-22T14:50:47.703Z,1.38
2022-10-22T14:53:16.794Z,1.33
2022-10-22T14:55:45.078Z,1.20
2022-10-22T14:58:12.639Z,1.17
2022-10-22T15:00:43.734Z,1.33
2022-10-22T15:03:11.023Z,1.95
2022-10-22T15:05:44.720Z,1.47
2022-10-22T15:08:13.814Z,1.20
2022-10-22T15:10:40.915Z,1.30
2022-10-22T15:13:08.259Z,0.90
2022-10-22T15:15:39.514Z,1.35
2022-10-22T15:18:07.544Z,1.57
2022-10-22T15:20:34.637Z,1.00
2022-10-22T15:23:01.610Z,2.45
2022-10-22T15:25:28.939Z,0.80
2022-10-22T15:28:00.801Z,1.05
2022-10-22T15:30:31.725Z,1.30
2022-10-22T15:32:58.685Z,1.50
2022-10-22T15:35:28.614Z,1.40
2022-10-22T15:37:55.647Z,1.27
2022-10-22T15:40:22.514Z,1.20
2022-10-22T15:42:49.553Z,1.23
2022-10-22T15:45:16.819Z,1.38
2022-10-22T15:47:48.364Z,1.52
2022-10-22T15:50:15.708Z,1.20
2022-10-22T15:52:42.746Z,0.95
2022-10-22T15:55:10.801Z,1.10
2022-10-22T15:57:39.339Z,0.82
2022-10-22T16:00:07.829Z,1.65
2022-10-22T16:02:34.884Z,0.70
2022-10-22T16:05:01.910Z,1.05
2022-10-22T16:07:30.133Z,1.20
2022-10-22T16:10:01.748Z,0.93
2022-10-22T16:12:28.875Z,1.70
2022-10-22T16:14:55.938Z,1.23
2022-10-22T16:17:23.491Z,1.10
2022-10-22T16:19:50.464Z,0.93
2022-10-22T16:22:17.407Z,1.30
2022-10-22T16:24:44.377Z,1.00
2022-10-22T16:27:11.361Z,1.10
2022-10-22T16:29:42.209Z,1.10
2022-10-22T16:32:09.229Z,0.87
2022-10-22T16:34:36.183Z,1.30
2022-10-22T16:37:03.214Z,0.77
2022-10-22T16:39:30.148Z,1.25
2022-10-22T16:41:57.147Z,1.05
2022-10-22T16:44:24.240Z,0.97
2022-10-22T16:46:51.190Z,1.08
2022-10-22T16:49:18.178Z,0.82
2022-10-22T16:51:45.161Z,1.50
2022-10-22T16:54:13.670Z,1.30
2022-10-22T16:56:40.665Z,1.13
2022-10-22T16:59:07.911Z,1.08
2022-10-22T17:01:39.481Z,1.10
2022-10-22T17:04:07.767Z,2.40
2022-10-22T17:06:34.724Z,1.50
2022-10-22T17:09:01.728Z,1.33
2022-10-22T17:11:35.207Z,2.05
2022-10-22T17:14:04.138Z,1.80
2022-10-22T17:16:31.006Z,1.63
2022-10-22T17:18:58.473Z,2.83
2022-10-22T17:21:25.480Z,2.73
2022-10-22T17:23:58.771Z,2.65
2022-10-22T17:26:27.028Z,3.97
2022-10-22T17:28:54.977Z,2.25
2022-10-22T17:31:27.979Z,2.70
2022-10-22T17:33:56.251Z,2.07
2022-10-22T17:36:24.824Z,2.05
2022-10-22T17:38:57.184Z,1.77
2022-10-22T17:41:27.182Z,1.52
2022-10-22T17:43:55.537Z,1.58
2022-10-22T17:46:27.912Z,1.10
2022-10-22T17:49:03.950Z,1.27
2022-10-22T17:51:31.927Z,1.50
2022-10-22T17:53:59.275Z,1.75
2022-10-22T17:56:30.163Z,1.20
2022-10-22T17:58:57.534Z,1.40
2022-10-22T18:01:28.999Z,1.38
2022-10-22T18:03:59.990Z,1.13
2022-10-22T18:06:27.000Z,0.80
2022-10-22T18:11:28.047Z,1.50
2022-10-22T18:13:56.956Z,1.20
2022-10-22T18:16:24.015Z,1.83
2022-10-22T18:18:55.884Z,1.20
2022-10-22T18:21:25.587Z,1.88
2022-10-22T18:23:52.889Z,1.40
2022-10-22T18:26:22.849Z,1.73
2022-10-22T18:28:52.994Z,1.67
2022-10-22T18:31:21.923Z,0.93
2022-10-22T18:33:49.351Z,1.45
2022-10-22T18:36:21.875Z,1.80
2022-10-22T18:38:54.113Z,1.70
2022-10-22T18:41:21.559Z,2.13
2022-10-22T18:43:53.065Z,1.90
2022-10-22T18:46:20.876Z,1.48
2022-10-22T18:48:47.812Z,1.47
2022-10-22T18:51:15.473Z,1.50
2022-10-22T18:53:53.615Z,2.63
2022-10-22T18:56:29.581Z,2.50
2022-10-22T18:58:56.554Z,2.78
2022-10-22T19:01:25.823Z,2.10
2022-10-22T19:03:52.851Z,2.55
2022-10-22T19:06:27.414Z,3.17
2022-10-22T19:08:54.349Z,2.42
2022-10-22T20:33:33.436Z,4.72
2022-10-22T20:36:13.214Z,3.97
2022-10-22T20:38:40.168Z,3.77
2022-10-22T20:41:11.007Z,4.78
2022-10-22T20:43:38.078Z,3.95
2022-10-22T20:46:05.242Z,3.85
2022-10-22T20:48:34.522Z,4.35
2022-10-22T20:51:01.881Z,4.70
2022-10-22T20:53:29.058Z,5.68
2022-10-22T20:55:59.158Z,5.97
2022-10-22T20:58:27.545Z,6.43
2022-10-22T21:00:55.355Z,6.25
2022-10-22T21:03:23.070Z,6.37
2022-10-22T21:05:50.146Z,5.65
2022-10-22T21:08:17.875Z,5.68
2022-10-22T21:10:49.805Z,5.78
2022-10-22T21:13:19.834Z,5.32
2022-10-22T21:15:46.871Z,5.33
2022-10-22T21:18:13.907Z,4.75
2022-10-22T21:20:41.374Z,4.63
2022-10-22T21:23:09.095Z,5.05
2022-10-22T21:25:39.540Z,5.35
2022-10-22T21:28:08.925Z,6.60
2022-10-22T21:30:35.701Z,5.97
2022-10-22T21:33:02.634Z,6.00
2022-10-22T21:35:29.677Z,6.22
2022-10-22T21:37:56.509Z,5.55
2022-10-22T21:40:23.516Z,5.30
2022-10-22T21:42:50.685Z,5.22
2022-10-22T21:45:22.033Z,4.97
2022-10-22T21:47:49.256Z,4.50
2022-10-22T21:50:16.119Z,4.18
2022-10-22T21:52:43.072Z,4.13
2022-10-22T21:55:10.211Z,4.65
2022-10-22T21:57:37.016Z,4.63
2022-10-22T22:00:07.456Z,4.70
2022-10-22T22:02:34.678Z,5.82
2022-10-22T22:05:01.621Z,5.20
2022-10-22T22:07:28.649Z,5.10
2022-10-22T22:09:55.611Z,4.80
2022-10-22T22:12:22.519Z,5.03
2022-10-22T22:14:49.495Z,5.40
2022-10-22T22:17:16.805Z,4.97
2022-10-22T22:19:43.691Z,5.53
2022-10-22T22:22:10.809Z,5.00
2022-10-22T22:24:39.919Z,4.93
2022-10-22T22:27:07.323Z,5.85
2022-10-22T22:29:34.507Z,5.73
2022-10-22T22:32:01.309Z,5.60
2022-10-22T22:34:28.188Z,5.28
2022-10-22T22:36:54.967Z,5.47
2022-10-22T22:39:25.516Z,5.15
2022-10-22T22:41:52.417Z,4.97
2022-10-22T22:44:19.343Z,4.88
2022-10-22T22:46:46.213Z,5.20
2022-10-22T22:49:14.066Z,5.72
2022-10-22T22:51:41.214Z,6.85
2022-10-22T22:54:07.994Z,5.90
2022-10-22T22:56:34.844Z,6.15
2022-10-22T22:59:02.038Z,6.68
2022-10-22T23:01:36.676Z,6.18
2022-10-22T23:04:16.499Z,5.30
2022-10-22T23:06:43.344Z,5.20
2022-10-22T23:09:12.281Z,6.03
2022-10-22T23:11:39.796Z,6.13
2022-10-22T23:14:08.093Z,7.88
2022-10-22T23:16:37.483Z,7.32
2022-10-22T23:19:05.456Z,7.70
2022-10-22T23:21:35.253Z,6.72
2022-10-22T23:24:05.825Z,7.55
2022-10-22T23:26:39.705Z,6.20
2022-10-22T23:29:14.916Z,6.00
2022-10-22T23:31:42.893Z,5.17
2022-10-22T23:34:11.612Z,5.72
2022-10-22T23:36:38.906Z,6.32
2022-10-22T23:39:10.184Z,5.18
2022-10-22T23:41:37.491Z,5.63
2022-10-22T23:44:05.214Z,5.47
2022-10-22T23:46:33.416Z,5.00
2022-10-22T23:49:01.135Z,5.07
2022-10-22T23:51:28.446Z,4.78
2022-10-22T23:53:58.171Z,5.32
2022-10-22T23:56:25.353Z,4.93
2022-10-22T23:58:52.865Z,5.45
